Terminal Aerodrome Forecast
Issued by NWS Houston/Galveston, TX

Current Version | Previous Version | Text Only | Print | Product List | Glossary Off
Versions: 1 2 3 4 5 6 7 8 9 10 11 12 13 14 15 16 17 18 19 20 21 22 23 24 25 26 27 28 29 30 31 32 33 34 35 36 37 38 39 40 41 42 43 44 45 46 47 48 49 50

000
FTUS44 KHGX 222334
TAFCLL
TAF
KCLL 222334Z 2300/2324 10008KT 6SM -RA BR VCTS SCT008 OVC015CB
     FM230300 14007KT 5SM -TSRA BR SCT007 OVC015CB
      TEMPO 2304/2306 VRB15G30KT 1SM +TSRA BR BKN007 OVC012CB
     FM230700 21007KT P6SM BKN025 OVC050
     FM231200 23010KT P6SM SCT050 BKN100
     FM231500 24012KT P6SM SKC=

USA.gov is the U.S. government's official web portal to all federal, state and local government web resources and services.